»·PEaware :: N7365W KLAX-KSAN

N7365W :: KLAX-KSAN

FLIGHT INFORMATION

Flight Status: Arrived
Operator: Privately registered:
United States
More flights under this callsign
Pilot: Roger W. (18657)
Aircraft: CESSNA 182 SKYLANE
(C182)
More flights by this aircraft type
Origin: KLAX Los Angeles Intl
United States
Destination: KSAN San Diego Intl-Lindbergh
United States
More flights between these airports :: More routes between these airports
Route: +
File this flight plan on PilotEdge
Remarks: cat11
Altitude:
(Current/Filed)
3,500ft
Speed:
(Current/Filed)
0kts
Departed: 10-May-18 09:16 AM
Arrived: 10-May-18 10:08 AM
Distance/Time
Traveled:
95nm/0:52
Distance/Time
To Go:
Arrived

Flight Plot

Page will automatically refresh every two minutes.


Map Options




Map Legend


Flown Route
Filed Route
Departure Airport
Arrival Airport
Navaid (VOR, NDB)
Fix

Horizontal Profiles

Position Reports

Time Latitude Longitude Heading Altitude Ground
Speed
10-May-18 08:58 33.933159 -118.403163 86 129ft 0kts
10-May-18 08:59 33.933159 -118.403159 86 129ft 0kts
10-May-18 09:00 33.933159 -118.403155 86 129ft 0kts
10-May-18 09:01 33.933159 -118.403151 86 129ft 0kts
10-May-18 09:02 33.933159 -118.403147 86 129ft 0kts
10-May-18 09:03 33.933160 -118.403143 86 129ft 0kts
10-May-18 09:04 33.933161 -118.403112 86 129ft 0kts
10-May-18 09:05 33.933250 -118.402976 9 129ft 0kts
10-May-18 09:06 33.933253 -118.402976 9 129ft 0kts
10-May-18 09:07 33.933269 -118.402972 9 129ft 0kts
10-May-18 09:08 33.934268 -118.400997 83 129ft 21kts
10-May-18 09:09 33.935170 -118.392786 79 129ft 23kts
10-May-18 09:10 33.935962 -118.385036 82 129ft 23kts
10-May-18 09:11 33.936288 -118.382657 316 129ft 0kts
10-May-18 09:12 33.936294 -118.382663 316 129ft 0kts
10-May-18 09:13 33.936361 -118.382737 317 129ft 3kts
10-May-18 09:14 33.936717 -118.382925 350 129ft 0kts
10-May-18 09:15 33.936863 -118.382952 350 129ft 5kts
10-May-18 09:16 33.936548 -118.393195 263 240ft 94kts
10-May-18 09:17 33.934611 -118.426848 270 1350ft 98kts
10-May-18 09:18 33.934088 -118.459434 240 2087ft 106kts
10-May-18 09:19 33.905957 -118.457949 163 2474ft 125kts
10-May-18 09:20 33.872299 -118.446790 166 2796ft 124kts
10-May-18 09:21 33.839061 -118.435718 163 3163ft 124kts
10-May-18 09:22 33.806366 -118.421456 158 3549ft 125kts
10-May-18 09:23 33.771278 -118.403692 157 3416ft 141kts
10-May-18 09:24 33.739792 -118.376554 125 3466ft 140kts
10-May-18 09:25 33.725840 -118.333011 100 3502ft 141kts
10-May-18 09:26 33.722695 -118.286358 91 3508ft 136kts
10-May-18 09:27 33.720624 -118.241267 96 3473ft 134kts
10-May-18 09:28 33.711679 -118.198006 110 3457ft 133kts
10-May-18 09:29 33.697247 -118.157057 114 3462ft 131kts
10-May-18 09:30 33.680844 -118.117554 120 3484ft 132kts
10-May-18 09:31 33.662936 -118.079142 117 3497ft 132kts
10-May-18 09:32 33.645157 -118.040740 123 3497ft 131kts
10-May-18 09:33 33.625392 -118.003618 122 3496ft 131kts
10-May-18 09:34 33.605624 -117.966630 125 3496ft 131kts
10-May-18 09:35 33.583220 -117.931709 127 3497ft 131kts
10-May-18 09:36 33.560901 -117.896895 127 3496ft 131kts
10-May-18 09:37 33.542975 -117.868936 127 3497ft 131kts
10-May-18 09:38 33.520579 -117.834016 127 3497ft 132kts
10-May-18 09:39 33.498244 -117.799201 127 3497ft 132kts
10-May-18 09:40 33.477794 -117.762761 122 3497ft 131kts
10-May-18 09:41 33.456977 -117.726595 137 3495ft 132kts
10-May-18 09:42 33.430309 -117.696491 136 3497ft 132kts
10-May-18 09:43 33.403599 -117.666207 136 3497ft 132kts
10-May-18 09:44 33.376979 -117.636032 136 3497ft 132kts
10-May-18 09:45 33.350352 -117.605858 136 3497ft 132kts
10-May-18 09:46 33.323621 -117.575575 136 3496ft 132kts
10-May-18 09:47 33.297011 -117.545439 136 3496ft 132kts
10-May-18 09:48 33.270343 -117.515244 136 3497ft 132kts
10-May-18 09:49 33.244338 -117.484161 133 3497ft 132kts
10-May-18 09:50 33.220338 -117.450957 127 3497ft 132kts
10-May-18 09:51 33.197499 -117.416346 130 3485ft 132kts
10-May-18 09:52 33.172304 -117.384792 139 3227ft 133kts
10-May-18 09:53 33.143502 -117.358227 143 2785ft 128kts
10-May-18 09:54 33.112734 -117.335548 152 2476ft 127kts
10-May-18 09:55 33.079871 -117.318562 157 2482ft 129kts
10-May-18 09:56 33.047072 -117.302210 158 2208ft 127kts
10-May-18 09:57 33.013726 -117.286549 157 2077ft 129kts
10-May-18 09:58 32.979491 -117.275010 171 2025ft 128kts
10-May-18 09:59 32.944318 -117.267401 170 1966ft 128kts
10-May-18 10:00 32.909238 -117.260369 169 1914ft 128kts
10-May-18 10:01 32.874267 -117.252246 170 1898ft 128kts
10-May-18 10:02 32.839177 -117.244686 168 1899ft 127kts
10-May-18 10:03 32.805425 -117.231751 153 1895ft 127kts
10-May-18 10:04 32.774342 -117.211941 147 1904ft 113kts
10-May-18 10:05 32.748944 -117.192932 148 964ft 106kts
10-May-18 10:06 32.741869 -117.160057 119 833ft 95kts
10-May-18 10:07 32.730474 -117.176183 277 208ft 79kts
10-May-18 10:08 32.733995 -117.190002 343 18ft 19kts
10-May-18 10:09 32.734332 -117.189025 107 18ft 15kts
10-May-18 10:10 32.734332 -117.187510 116 18ft 0kts
10-May-18 10:11 32.734331 -117.187510 116 18ft 0kts
10-May-18 10:12 32.734331 -117.187510 116 18ft 0kts

Navigation Log

Ident Type
1. KLAX Airport
2. KSAN Airport